createdAt,value
2023-03-28T00:02:27.165Z,98964.53
2023-03-28T00:05:12.452Z,98954.66
2023-03-28T00:07:59.845Z,98960.97
2023-03-28T00:10:45.793Z,98966.53
2023-03-28T00:13:31.192Z,98969.72
2023-03-28T00:16:16.844Z,98955.84
2023-03-28T00:19:05.801Z,98959.44
2023-03-28T00:21:51.358Z,98954.28
2023-03-28T00:24:38.907Z,98951.50
2023-03-28T00:27:26.090Z,98958.25
2023-03-28T00:30:11.844Z,98943.59
2023-03-28T00:32:57.622Z,98942.81
2023-03-28T00:35:43.115Z,98963.03
2023-03-28T00:38:28.984Z,98953.94
2023-03-28T00:41:16.067Z,98967.81
2023-03-28T00:44:02.796Z,98959.50
2023-03-28T00:46:48.058Z,98966.25
2023-03-28T00:49:33.417Z,98961.50
2023-03-28T00:52:21.514Z,98964.25
2023-03-28T00:55:12.417Z,98957.59
2023-03-28T00:57:58.523Z,98953.56
2023-03-28T01:00:49.156Z,98949.25
2023-03-28T01:03:35.843Z,98952.81
2023-03-28T01:06:25.337Z,98950.03
2023-03-28T01:09:11.269Z,98954.81
2023-03-28T01:11:59.116Z,98954.00
2023-03-28T01:14:45.554Z,98955.22
2023-03-28T01:17:31.017Z,98958.78
2023-03-28T01:20:43.050Z,98954.44
2023-03-28T01:24:11.741Z,98965.97
2023-03-28T01:27:23.264Z,98972.31
2023-03-28T01:30:37.020Z,98981.84
2023-03-28T01:34:09.292Z,98976.31
2023-03-28T01:36:57.489Z,98973.53
2023-03-28T01:39:59.886Z,98975.50
2023-03-28T01:43:12.058Z,98985.81
2023-03-28T01:46:03.674Z,98977.50
2023-03-28T01:49:14.066Z,98984.28
2023-03-28T01:52:08.669Z,98987.06
2023-03-28T01:55:12.793Z,98984.28
2023-03-28T01:58:11.017Z,98986.28
2023-03-28T02:01:36.794Z,98986.69
2023-03-28T02:04:30.997Z,98981.13
2023-03-28T02:07:22.245Z,98997.81
2023-03-28T02:10:32.097Z,98995.03
2023-03-28T02:13:55.706Z,98996.22
2023-03-28T02:17:04.831Z,99000.56
2023-03-28T02:20:24.846Z,99001.00
2023-03-28T02:23:47.394Z,98987.13
2023-03-28T02:27:00.727Z,98973.22
2023-03-28T02:29:54.920Z,98978.00
2023-03-28T02:33:00.678Z,98985.56
2023-03-28T02:36:07.427Z,98999.44
2023-03-28T02:39:08.818Z,99001.00
2023-03-28T02:42:08.931Z,98983.19
2023-03-28T02:45:21.676Z,98999.44
2023-03-28T02:48:55.117Z,99007.78
2023-03-28T02:52:15.085Z,99015.31
2023-03-28T02:55:17.487Z,99014.53
2023-03-28T02:58:37.716Z,99016.94
2023-03-28T03:01:29.888Z,99012.25
2023-03-28T03:04:17.317Z,99003.19
2023-03-28T03:07:02.905Z,98990.94
2023-03-28T03:09:53.782Z,99005.69
2023-03-28T03:12:39.247Z,99007.66
2023-03-28T03:15:25.902Z,98993.00
2023-03-28T03:18:16.946Z,98999.78
2023-03-28T03:21:03.577Z,99003.34
2023-03-28T03:23:48.821Z,98989.47
2023-03-28T03:26:34.282Z,98997.00
2023-03-28T03:29:22.025Z,99004.13
2023-03-28T03:32:07.539Z,98983.13
2023-03-28T03:35:04.493Z,98972.03
2023-03-28T03:37:50.029Z,99008.53
2023-03-28T03:40:35.436Z,99060.84
2023-03-28T03:43:21.309Z,99074.38
2023-03-28T03:46:07.570Z,99070.38
2023-03-28T03:48:52.912Z,99083.06
2023-03-28T03:51:39.451Z,99072.72
2023-03-28T03:54:26.079Z,99079.06
2023-03-28T03:57:11.512Z,99082.19
2023-03-28T03:59:58.118Z,99093.31
2023-03-28T04:02:44.826Z,99094.88
2023-03-28T04:05:30.920Z,99094.88
2023-03-28T04:08:21.705Z,99094.88
2023-03-28T04:11:09.569Z,99093.31
2023-03-28T04:14:00.066Z,99106.00
2023-03-28T04:16:45.632Z,99108.78
2023-03-28T04:19:31.130Z,99104.78
2023-03-28T04:22:18.333Z,99120.66
2023-03-28T04:25:09.909Z,99120.22
2023-03-28T04:27:57.612Z,99127.34
2023-03-28T04:30:44.715Z,99134.91
2023-03-28T04:33:49.384Z,99144.78
2023-03-28T04:36:37.717Z,99150.69
2023-03-28T04:39:24.970Z,99162.59
2023-03-28T04:45:21.698Z,99164.16
2023-03-28T04:48:07.594Z,99173.28
2023-03-28T04:50:54.201Z,99168.50
2023-03-28T04:53:39.616Z,99178.81
2023-03-28T04:56:48.096Z,99187.56
2023-03-28T04:59:36.759Z,99193.50
2023-03-28T05:02:22.794Z,99200.25
2023-03-28T05:05:22.832Z,99204.22
2023-03-28T05:08:08.816Z,99201.09
2023-03-28T05:10:55.422Z,99215.34
2023-03-28T05:13:41.812Z,99214.19
2023-03-28T05:16:37.140Z,99214.59
2023-03-28T05:19:22.884Z,99238.81
2023-03-28T05:22:17.683Z,99238.81
2023-03-28T05:25:08.329Z,99246.34
2023-03-28T05:27:57.001Z,99244.81
2023-03-28T05:30:43.562Z,99248.75
2023-03-28T05:33:30.277Z,99257.88
2023-03-28T05:36:15.650Z,99255.53
2023-03-28T05:39:01.443Z,99266.28
2023-03-28T05:41:46.664Z,99272.59
2023-03-28T05:44:31.956Z,99271.81
2023-03-28T05:47:36.286Z,99278.94
2023-03-28T05:50:22.824Z,99286.13
2023-03-28T05:53:09.268Z,99282.94
2023-03-28T05:55:54.371Z,99296.03
2023-03-28T05:58:40.311Z,99295.22
2023-03-28T06:01:29.251Z,99299.59
2023-03-28T06:04:22.968Z,99305.13
2023-03-28T06:07:09.878Z,99302.38
2023-03-28T06:09:55.383Z,99316.25
2023-03-28T06:12:41.298Z,99319.00
2023-03-28T06:15:27.295Z,99319.78
2023-03-28T06:18:13.603Z,99324.56
2023-03-28T06:21:04.386Z,99328.53
2023-03-28T06:23:50.154Z,99332.91
2023-03-28T06:26:44.056Z,99333.69
2023-03-28T06:29:33.209Z,99334.47
2023-03-28T06:32:22.265Z,99334.81
2023-03-28T06:35:08.411Z,99347.16
2023-03-28T06:37:53.585Z,99349.94
2023-03-28T06:40:45.188Z,99353.06
2023-03-28T06:43:31.498Z,99348.72
2023-03-28T06:46:26.971Z,99355.84
2023-03-28T06:49:12.329Z,99363.38
2023-03-28T06:52:33.634Z,99355.84
2023-03-28T06:55:22.778Z,99372.50
2023-03-28T06:58:08.063Z,99377.25
2023-03-28T07:01:06.335Z,99378.47
2023-03-28T07:03:52.573Z,99380.03
2023-03-28T07:06:41.351Z,99384.81
2023-03-28T07:09:27.573Z,99392.34
2023-03-28T07:12:19.031Z,99401.06
2023-03-28T07:15:04.750Z,99393.91
2023-03-28T07:17:50.298Z,99414.94
2023-03-28T07:20:40.163Z,99412.56
2023-03-28T07:23:25.701Z,99416.94
2023-03-28T07:26:13.387Z,99413.34
2023-03-28T07:28:58.939Z,99412.94
2023-03-28T07:31:45.764Z,99416.94
2023-03-28T07:34:31.216Z,99415.72
2023-03-28T07:37:19.506Z,99427.59
2023-03-28T07:40:12.765Z,99434.38
2023-03-28T07:42:59.753Z,99433.59
2023-03-28T07:45:46.908Z,99439.47
2023-03-28T07:48:33.040Z,99436.72
2023-03-28T07:51:21.360Z,99442.25
2023-03-28T07:54:07.396Z,99442.25
2023-03-28T07:56:52.867Z,99452.19
2023-03-28T07:59:43.106Z,99450.97
2023-03-28T08:02:29.395Z,99460.88
2023-03-28T08:05:14.825Z,99459.66
2023-03-28T08:08:00.465Z,99472.38
2023-03-28T08:10:50.919Z,99473.56
2023-03-28T08:16:29.253Z,99471.94
2023-03-28T08:19:14.900Z,99479.06
2023-03-28T08:22:19.176Z,99486.63
2023-03-28T08:25:32.052Z,99484.63
2023-03-28T08:28:19.239Z,99496.09
2023-03-28T08:31:16.010Z,99490.97
2023-03-28T08:34:07.211Z,99484.22
2023-03-28T08:36:57.692Z,99495.31
2023-03-28T08:39:47.394Z,99491.34
2023-03-28T08:42:47.764Z,99495.69
2023-03-28T08:45:43.775Z,99499.25
2023-03-28T08:48:35.923Z,99506.38
2023-03-28T08:51:35.303Z,99496.06
2023-03-28T08:54:26.451Z,99509.94
2023-03-28T08:57:23.674Z,99505.59
2023-03-28T09:00:30.293Z,99506.75
2023-03-28T09:03:19.088Z,99507.97
2023-03-28T09:06:38.278Z,99512.72
2023-03-28T09:09:32.313Z,99521.41
2023-03-28T09:12:57.005Z,99526.97
2023-03-28T09:15:59.224Z,99526.97
2023-03-28T09:19:12.590Z,99532.53
2023-03-28T09:22:22.093Z,99538.09
2023-03-28T09:25:18.701Z,99534.13
2023-03-28T09:28:41.032Z,99541.22
2023-03-28T09:31:33.265Z,99545.22
2023-03-28T09:34:23.048Z,99539.69
2023-03-28T09:37:35.400Z,99534.13
2023-03-28T09:40:25.096Z,99541.22
2023-03-28T09:43:33.880Z,99541.22
2023-03-28T09:46:42.614Z,99546.78
2023-03-28T09:49:46.324Z,99534.13
2023-03-28T09:52:33.219Z,99553.94
2023-03-28T09:55:28.471Z,99550.34
2023-03-28T09:58:15.003Z,99549.56
2023-03-28T10:01:24.448Z,99553.94
2023-03-28T10:04:28.661Z,99547.16
2023-03-28T10:07:45.640Z,99550.34
2023-03-28T10:10:58.945Z,99552.72
2023-03-28T10:13:51.733Z,99560.28
2023-03-28T10:16:37.286Z,99559.50
2023-03-28T10:19:46.961Z,99559.50
2023-03-28T10:22:39.987Z,99558.69
2023-03-28T10:25:49.567Z,99563.06
2023-03-28T10:28:36.951Z,99567.81
2023-03-28T10:31:29.534Z,99569.78
2023-03-28T10:34:29.976Z,99559.50
2023-03-28T10:37:36.433Z,99555.50
2023-03-28T10:40:58.579Z,99557.13
2023-03-28T10:43:59.647Z,99570.22
2023-03-28T10:47:02.446Z,99562.28
2023-03-28T10:49:58.047Z,99568.22
2023-03-28T10:53:28.862Z,99557.91
2023-03-28T10:56:38.491Z,99553.13
2023-03-28T10:59:52.657Z,99563.44
2023-03-28T11:02:54.032Z,99563.44
2023-03-28T11:06:08.129Z,99578.56
2023-03-28T11:09:31.789Z,99568.63
2023-03-28T11:13:08.415Z,99568.63
2023-03-28T11:16:10.702Z,99572.22
2023-03-28T11:19:40.490Z,99558.34
2023-03-28T11:22:59.252Z,99569.00
2023-03-28T11:26:13.303Z,99563.06
2023-03-28T11:29:42.663Z,99563.06
2023-03-28T11:32:40.776Z,99570.63
2023-03-28T11:35:32.676Z,99572.22
2023-03-28T11:38:26.755Z,99561.13
2023-03-28T11:41:19.147Z,99555.97
2023-03-28T11:44:44.085Z,99553.56
2023-03-28T11:47:41.556Z,99560.31
2023-03-28T11:51:03.256Z,99556.34
2023-03-28T11:54:03.746Z,99550.00
2023-03-28T11:56:57.645Z,99555.13
2023-03-28T12:00:23.065Z,99537.28
2023-03-28T12:03:23.731Z,99559.50
2023-03-28T12:06:39.479Z,99547.16
2023-03-28T12:09:55.652Z,99537.28
2023-03-28T12:13:06.763Z,99531.72
2023-03-28T12:16:03.907Z,99545.97
2023-03-28T12:19:10.922Z,99540.44
2023-03-28T12:22:19.343Z,99542.41
2023-03-28T12:25:31.346Z,99543.19
2023-03-28T12:28:39.030Z,99546.75
2023-03-28T12:31:42.915Z,99531.66
2023-03-28T12:34:42.642Z,99538.03
2023-03-28T12:38:00.686Z,99532.81
2023-03-28T12:41:00.456Z,99537.19
2023-03-28T12:44:21.056Z,99522.09
2023-03-28T12:47:22.684Z,99536.78
2023-03-28T12:50:26.707Z,99533.56
2023-03-28T12:53:15.731Z,99539.13
2023-03-28T12:56:03.494Z,99535.56
2023-03-28T12:58:52.693Z,99548.25
2023-03-28T13:01:50.393Z,99539.13
2023-03-28T13:05:16.145Z,99536.72
2023-03-28T13:08:09.678Z,99544.28
2023-03-28T13:11:13.802Z,99536.34
2023-03-28T13:14:18.936Z,99533.56
2023-03-28T13:17:28.160Z,99542.28
2023-03-28T13:20:17.489Z,99544.28
2023-03-28T13:23:07.972Z,99544.28
2023-03-28T13:25:56.574Z,99553.38
2023-03-28T13:28:45.098Z,99550.59
2023-03-28T13:31:32.944Z,99540.72
2023-03-28T13:34:25.814Z,99543.50
2023-03-28T13:37:32.240Z,99544.31
2023-03-28T13:40:40.525Z,99541.16
2023-03-28T13:43:35.019Z,99558.63
2023-03-28T13:46:30.388Z,99558.63
2023-03-28T13:49:46.372Z,99558.56
2023-03-28T13:52:33.294Z,99550.22
2023-03-28T13:55:26.121Z,99549.00
2023-03-28T13:58:18.570Z,99548.56
2023-03-28T14:01:16.324Z,99550.50
2023-03-28T14:04:02.867Z,99541.28
2023-03-28T14:06:53.211Z,99546.00
2023-03-28T14:09:38.638Z,99545.56
2023-03-28T14:12:29.230Z,99557.38
2023-03-28T14:15:21.171Z,99551.00
2023-03-28T14:18:16.015Z,99538.28
2023-03-28T14:21:02.376Z,99538.22
2023-03-28T14:24:04.340Z,99547.69
2023-03-28T14:26:51.360Z,99543.72
2023-03-28T14:29:59.854Z,99544.50
2023-03-28T14:33:10.884Z,99549.66
2023-03-28T14:36:01.906Z,99550.38
2023-03-28T14:38:47.361Z,99547.94
2023-03-28T14:41:36.392Z,99548.69
2023-03-28T14:44:23.746Z,99551.84
2023-03-28T14:47:23.493Z,99545.13
2023-03-28T14:50:16.265Z,99540.34
2023-03-28T14:53:08.123Z,99544.34
2023-03-28T14:55:58.739Z,99545.91
2023-03-28T14:58:49.937Z,99548.28
2023-03-28T15:01:37.868Z,99547.50
2023-03-28T15:04:25.836Z,99546.66
2023-03-28T15:07:21.417Z,99554.16
2023-03-28T15:10:22.827Z,99550.19
2023-03-28T15:13:12.680Z,99556.94
2023-03-28T15:15:58.550Z,99555.78
2023-03-28T15:18:47.673Z,99555.38
2023-03-28T15:21:38.452Z,99554.16
2023-03-28T15:24:26.908Z,99545.03
2023-03-28T15:27:30.886Z,99551.81
2023-03-28T15:30:18.968Z,99541.84
2023-03-28T15:33:06.746Z,99548.97
2023-03-28T15:36:15.172Z,99544.63
2023-03-28T15:39:24.594Z,99555.34
2023-03-28T15:42:19.316Z,99556.09
2023-03-28T15:45:41.435Z,99547.75
2023-03-28T15:48:27.806Z,99554.47
2023-03-28T15:51:16.884Z,99544.91
2023-03-28T15:54:02.535Z,99550.47
2023-03-28T15:56:48.779Z,99555.25
2023-03-28T15:59:42.216Z,99558.03
2023-03-28T16:02:27.960Z,99563.59
2023-03-28T16:05:36.263Z,99567.59
2023-03-28T16:08:31.590Z,99572.72
2023-03-28T16:11:27.164Z,99578.34
2023-03-28T16:14:45.949Z,99576.75
2023-03-28T16:17:58.825Z,99579.13
2023-03-28T16:20:54.106Z,99566.38
2023-03-28T16:23:40.496Z,99567.16
2023-03-28T16:26:26.663Z,99572.72
2023-03-28T16:29:11.792Z,99563.97
2023-03-28T16:31:57.227Z,99560.41
2023-03-28T16:34:43.462Z,99560.41
2023-03-28T16:37:28.825Z,99551.28
2023-03-28T16:40:14.407Z,99557.63
2023-03-28T16:43:00.317Z,99563.19
2023-03-28T16:45:47.961Z,99561.19
2023-03-28T16:48:36.979Z,99567.13
2023-03-28T16:51:23.257Z,99563.97
2023-03-28T16:54:10.193Z,99557.22
2023-03-28T16:56:55.856Z,99557.56
2023-03-28T16:59:42.550Z,99553.22
2023-03-28T17:02:28.323Z,99546.03
2023-03-28T17:05:14.758Z,99557.53
2023-03-28T17:08:03.519Z,99555.59
2023-03-28T17:10:51.362Z,99553.59
2023-03-28T17:13:38.930Z,99553.59
2023-03-28T17:16:24.289Z,99547.19
2023-03-28T17:19:09.367Z,99549.97
2023-03-28T17:21:57.752Z,99551.97
2023-03-28T17:24:46.592Z,99551.19
2023-03-28T17:27:31.889Z,99548.41
2023-03-28T17:30:17.455Z,99549.59
2023-03-28T17:33:03.764Z,99552.00
2023-03-28T17:35:50.731Z,99556.00
2023-03-28T17:38:45.001Z,99554.00
2023-03-28T17:41:32.346Z,99553.25
2023-03-28T17:44:17.584Z,99553.34
2023-03-28T17:47:03.433Z,99549.03
2023-03-28T17:49:49.317Z,99551.06
2023-03-28T17:52:35.110Z,99557.88
2023-03-28T17:55:20.747Z,99555.50
2023-03-28T17:58:06.229Z,99554.78
2023-03-28T18:00:51.750Z,99550.84
2023-03-28T18:03:37.591Z,99548.13
2023-03-28T18:06:43.282Z,99552.13
2023-03-28T18:09:28.641Z,99546.22
2023-03-28T18:12:14.013Z,99555.78
2023-03-28T18:15:01.097Z,99544.31
2023-03-28T18:17:47.448Z,99550.25
2023-03-28T18:20:33.025Z,99553.88
2023-03-28T18:23:18.376Z,99549.13
2023-03-28T18:26:04.612Z,99553.13
2023-03-28T18:28:50.090Z,99559.50
2023-03-28T18:31:36.939Z,99553.56
2023-03-28T18:34:22.540Z,99553.22
2023-03-28T18:37:07.771Z,99558.41
2023-03-28T18:39:54.499Z,99557.66
2023-03-28T18:42:40.243Z,99566.41
2023-03-28T18:45:25.729Z,99558.47
2023-03-28T18:48:11.437Z,99565.66
2023-03-28T18:50:58.393Z,99557.75
2023-03-28T18:53:43.820Z,99555.38
2023-03-28T18:56:29.803Z,99557.00
2023-03-28T18:59:15.168Z,99553.84
2023-03-28T19:02:00.983Z,99550.69
2023-03-28T19:04:47.378Z,99561.03
2023-03-28T19:07:32.882Z,99555.88
2023-03-28T19:10:18.264Z,99553.50
2023-03-28T19:13:03.834Z,99559.50
2023-03-28T19:15:59.907Z,99554.34
2023-03-28T19:18:49.697Z,99564.28
2023-03-28T19:21:34.864Z,99558.75
2023-03-28T19:24:22.261Z,99555.19
2023-03-28T19:27:07.756Z,99559.56
2023-03-28T19:29:52.977Z,99555.22
2023-03-28T19:32:38.298Z,99557.59
2023-03-28T19:35:23.452Z,99553.66
2023-03-28T19:38:08.896Z,99554.44
2023-03-28T19:40:58.686Z,99548.53
2023-03-28T19:43:44.374Z,99552.50
2023-03-28T19:46:33.784Z,99552.50
2023-03-28T19:49:19.782Z,99550.13
2023-03-28T19:52:05.689Z,99546.19
2023-03-28T19:54:50.843Z,99546.59
2023-03-28T19:57:36.324Z,99547.41
2023-03-28T20:00:21.865Z,99543.06
2023-03-28T20:03:07.185Z,99537.91
2023-03-28T20:05:52.608Z,99543.88
2023-03-28T20:08:38.622Z,99542.28
2023-03-28T20:11:24.112Z,99537.56
2023-03-28T20:14:10.140Z,99534.41
2023-03-28T20:16:55.514Z,99536.00
2023-03-28T20:19:40.759Z,99531.63
2023-03-28T20:22:29.773Z,99526.53
2023-03-28T20:25:16.018Z,99523.75
2023-03-28T20:28:05.094Z,99516.66
2023-03-28T20:30:52.427Z,99515.50
2023-03-28T20:33:38.525Z,99511.50
2023-03-28T20:36:23.986Z,99505.97
2023-03-28T20:39:09.280Z,99502.41
2023-03-28T20:41:54.910Z,99500.41
2023-03-28T20:44:40.501Z,99493.63
2023-03-28T20:47:25.942Z,99482.91
2023-03-28T20:50:11.433Z,99480.50
2023-03-28T20:52:56.937Z,99484.06
2023-03-28T20:55:43.320Z,99477.34
2023-03-28T20:58:30.580Z,99483.28
2023-03-28T21:01:17.489Z,99472.97
2023-03-28T21:04:04.581Z,99474.19
2023-03-28T21:06:50.329Z,99474.97
2023-03-28T21:09:35.869Z,99478.97
2023-03-28T21:12:22.270Z,99480.94
2023-03-28T21:15:09.042Z,99478.97
2023-03-28T21:17:54.638Z,99478.19
2023-03-28T21:20:39.932Z,99473.41
2023-03-28T21:23:25.325Z,99473.41
2023-03-28T21:26:13.224Z,99476.59
2023-03-28T21:28:59.415Z,99478.19
2023-03-28T21:31:45.091Z,99475.41
2023-03-28T21:34:36.869Z,99474.59
2023-03-28T21:37:22.360Z,99475.03
2023-03-28T21:40:08.684Z,99468.66
2023-03-28T21:42:53.876Z,99470.25
2023-03-28T21:45:39.385Z,99461.53
2023-03-28T21:48:24.714Z,99464.31
2023-03-28T21:51:09.889Z,99477.00
2023-03-28T21:53:55.026Z,99473.03
2023-03-28T21:56:40.384Z,99473.03
2023-03-28T21:59:26.326Z,99474.22
2023-03-28T22:02:11.561Z,99468.66
2023-03-28T22:04:56.987Z,99467.09
2023-03-28T22:07:42.075Z,99462.75
2023-03-28T22:10:27.392Z,99462.34
2023-03-28T22:13:13.977Z,99443.34
2023-03-28T22:15:59.915Z,99444.13
2023-03-28T22:18:49.731Z,99438.56
2023-03-28T22:21:37.050Z,99438.97
2023-03-28T22:24:24.449Z,99437.78
2023-03-28T22:27:10.744Z,99442.53
2023-03-28T22:29:57.313Z,99441.75
2023-03-28T22:32:42.669Z,99441.75
2023-03-28T22:35:27.964Z,99440.97
2023-03-28T22:38:13.516Z,99440.97
2023-03-28T22:40:59.103Z,99438.19
2023-03-28T22:43:45.064Z,99432.63
2023-03-28T22:46:30.875Z,99426.31
2023-03-28T22:49:22.081Z,99426.31
2023-03-28T22:52:07.324Z,99421.94
2023-03-28T22:54:53.064Z,99415.63
2023-03-28T22:57:38.240Z,99419.16
2023-03-28T23:00:23.893Z,99421.16
2023-03-28T23:03:10.346Z,99417.59
2023-03-28T23:05:55.567Z,99411.63
2023-03-28T23:08:40.809Z,99414.84
2023-03-28T23:11:26.264Z,99420.00
2023-03-28T23:14:11.771Z,99414.03
2023-03-28T23:16:58.222Z,99406.13
2023-03-28T23:19:43.639Z,99410.47
2023-03-28T23:22:29.255Z,99408.13
2023-03-28T23:25:18.390Z,99411.69
2023-03-28T23:28:03.933Z,99410.91
2023-03-28T23:30:49.150Z,99417.22
2023-03-28T23:33:34.520Z,99414.84
2023-03-28T23:36:20.985Z,99409.31
2023-03-28T23:39:11.118Z,99402.97
2023-03-28T23:41:56.763Z,99407.38
2023-03-28T23:44:42.403Z,99401.44
2023-03-28T23:47:27.701Z,99397.91
2023-03-28T23:50:13.045Z,99395.91
2023-03-28T23:52:58.391Z,99396.69
2023-03-28T23:55:43.622Z,99391.13
2023-03-28T23:58:29.029Z,99386.78
